Acton, Massachusetts
Current Conditions -  °F | °C
As of 5:56 PM on Saturday 25 Oct 2014 (Local Time) from KBED Reporting Station
Scattered Clouds Scattered Clouds  
Wind Chill: 14°   Ceiling: Unl
Heat Index: 14°   Visibility: 10mi
Dew Point:   Wind: 3mph
Humidity: 57%   Direction: 260°W
Pressure: 29.58"   Gusts: NA
Location:  42.49°N, 71.43°W
Report Text: KBED 252156Z 26003KT 10SM SCT055 14/06 A2958 RMK AO2 SLP030 T01390056
Loading
Personal Weather Stations






























Interactive Weather Map
Tropical Storm Tracking
New forecast layout! Learn more

10-Day Weather Forecast

Advertisements
Track Severe Weather on mobile